Rochester, Illinois
Current Conditions -  °F | °C
As of 3:52 PM on Friday 28 Nov 2014 (Local Time) from KSPI Reporting Station
Clear Clear  
Wind Chill: 31°   Ceiling: Unl
Heat Index: 39°   Visibility: 10mi
Dew Point: 32°   Wind: 14mph
Humidity: 76%   Direction: 160°SSE
Pressure: 29.96"   Gusts: NA
Location:  39.75°N, 89.53°W
Report Text: KSPI 282152Z 16012KT 10SM CLR 04/00 A2996 RMK AO2 SLP153 T00390000
Loading
Personal Weather Stations






























Interactive Weather Map New forecast layout! Learn more

10-Day Weather Forecast

Advertisements
Track Severe Weather on mobile